X  CloseMetar Aviation Weather Data     YMAV Avalon

Temperature

27°C Temperature

11°C Dewpoint

37% Humidity



Wind

40 KM/H

25 MPH

11 M/S

22 KTS



10°
Due North
Current Conditions

Clear Clear
Pressure 999.92 (hPa) - 29.53 (in)
Visibility 6.2 (mi) - 10 (km)
Airport
Airport-code YMAV

Location Avalon 14 (km)

Metar:
YMAV 212325Z AUTO 01022G32KT 9999 // NCD 27/11 Q1000 RF00.0/000.0

Time: 22-01-2020 10:25